Accueil
METAR-TAF:

METAR-TAF

Aéroports :

Laupheim, Allemagne

latitude: 48-13N, longitude: 009-55E, altitude: 538 m

Observation

Le bulletin a été fait il y a 24 minutes, à 10:20 UTC
Vent 3 kt de est/nord-est
Température 20°C
Humidité 73%
Pression 1022 hPa
Visibilité 10 km ou plus
Quelques nuages à une hauteur de 1600 ft
Nuages épars à une hauteur de 7000 ft
Nuages fragmentés à une hauteur de 10000 ft

METAR: ETHL 181020Z 06003KT 9999 FEW016 SCT070 BKN100 20/15 Q1022 BLACKBLU

Heure: 12:44 (10:44 UTC)

Prévision

Le bulletin a été fait il y a 25 heures et 40 minutes, à 09:04 UTC
Prévision valable du 17 à 08 UTC au 17 à 17 UTC
Vent 7 kt de ouest/sud-ouest
Visibilité: 1000 m
Quelques nuages à une hauteur de 5000 ft
Nuages épars à une hauteur de 30000 ft

TAF: ETHL 170904Z 1708/1717 25007KT 9999 NSW FEW050 SCT300 CANCEL 1000

Observations et prévisions météorologiques de plus de 4000 aéroports (messages METAR et TAF).

Les stations disponibles sont représentées par des disques jaunes et rouges sur la carte.

Passer la souris dessus pour voir le nom de la station.

Cliquer dessus pour voir les observations et prévisions météorologiques.

Pour changer de carte: cliquez sur les boutons verts avec une croix noire pour zoomer, sur le bouton vert avec un tiret pour effectuer un zoom arrière, ou sur les flèches vertes pour les cartes adjacentes.


METAR-TAF: